createdAt,value
2018-06-01T00:02:05.979Z,27.21
2018-06-01T00:06:57.610Z,27.13
2018-06-01T00:11:49.243Z,27.05
2018-06-01T00:16:41.648Z,26.94
2018-06-01T00:21:32.526Z,26.80
2018-06-01T00:26:24.172Z,26.67
2018-06-01T00:31:15.844Z,26.59
2018-06-01T00:36:07.450Z,26.52
2018-06-01T00:40:59.125Z,26.43
2018-06-01T00:45:50.797Z,26.33
2018-06-01T00:50:41.671Z,26.25
2018-06-01T00:55:32.575Z,26.15
2018-06-01T01:00:23.485Z,26.10
2018-06-01T01:05:15.100Z,26.04
2018-06-01T01:10:06.022Z,25.97
2018-06-01T01:14:56.950Z,25.90
2018-06-01T01:19:48.618Z,25.83
2018-06-01T01:24:40.292Z,25.74
2018-06-01T01:29:31.932Z,25.62
2018-06-01T01:34:22.815Z,25.55
2018-06-01T01:39:13.750Z,25.48
2018-06-01T01:44:05.376Z,25.44
2018-06-01T01:48:56.309Z,25.42
2018-06-01T01:53:47.202Z,25.42
2018-06-01T01:58:38.136Z,25.37
2018-06-01T02:03:29.768Z,25.34
2018-06-01T02:08:21.414Z,25.31
2018-06-01T02:13:12.301Z,25.30
2018-06-01T02:18:03.965Z,25.28
2018-06-01T02:22:54.897Z,25.23
2018-06-01T02:27:45.805Z,25.18
2018-06-01T02:32:36.735Z,25.15
2018-06-01T02:37:27.734Z,25.12
2018-06-01T02:42:19.392Z,25.09
2018-06-01T02:47:11.048Z,25.02
2018-06-01T02:52:01.966Z,24.97
2018-06-01T02:56:52.847Z,24.92
2018-06-01T03:01:44.499Z,24.88
2018-06-01T03:07:04.169Z,24.83
2018-06-01T03:11:55.781Z,24.79
2018-06-01T03:16:46.665Z,24.72
2018-06-01T03:21:37.568Z,24.71
2018-06-01T03:26:28.436Z,24.71
2018-06-01T03:31:19.344Z,24.68
2018-06-01T03:36:10.244Z,24.65
2018-06-01T03:41:01.151Z,24.66
2018-06-01T03:45:52.023Z,24.68
2018-06-01T03:50:42.919Z,24.64
2018-06-01T03:55:33.852Z,24.62
2018-06-01T04:00:24.753Z,24.61
2018-06-01T04:05:15.665Z,24.58
2018-06-01T04:10:06.555Z,24.53
2018-06-01T04:14:58.197Z,24.49
2018-06-01T04:19:49.845Z,24.49
2018-06-01T04:24:41.500Z,24.47
2018-06-01T04:29:32.430Z,24.46
2018-06-01T04:34:23.317Z,24.48
2018-06-01T04:39:14.981Z,24.47
2018-06-01T04:44:05.919Z,24.49
2018-06-01T04:48:56.817Z,24.50
2018-06-01T04:53:48.441Z,24.54
2018-06-01T04:58:40.063Z,24.57
2018-06-01T05:03:32.463Z,24.57
2018-06-01T05:08:23.428Z,24.60
2018-06-01T05:13:14.307Z,24.68
2018-06-01T05:18:05.244Z,24.80
2018-06-01T05:22:56.123Z,24.92
2018-06-01T05:27:47.044Z,25.04
2018-06-01T05:32:38.743Z,25.16
2018-06-01T05:37:31.178Z,25.22
2018-06-01T05:42:22.100Z,25.30
2018-06-01T05:47:13.732Z,25.37
2018-06-01T05:52:04.644Z,25.46
2018-06-01T05:56:55.526Z,25.53
2018-06-01T06:01:47.183Z,25.60
2018-06-01T06:06:39.624Z,25.62
2018-06-01T06:11:30.569Z,25.69
2018-06-01T06:16:21.471Z,25.75
2018-06-01T06:21:13.135Z,25.88
2018-06-01T06:26:04.137Z,26.01
2018-06-01T06:30:55.775Z,26.01
2018-06-01T06:35:46.736Z,25.94
2018-06-01T06:40:37.636Z,25.89
2018-06-01T06:45:28.546Z,25.87
2018-06-01T06:50:20.163Z,25.84
2018-06-01T06:55:11.096Z,25.82
2018-06-01T07:00:02.684Z,25.84
2018-06-01T07:04:53.552Z,25.89
2018-06-01T07:09:44.507Z,25.97
2018-06-01T07:14:35.424Z,25.88
2018-06-01T07:19:26.377Z,26.12
2018-06-01T07:24:18.010Z,27.09
2018-06-01T07:29:09.668Z,28.37
2018-06-01T07:34:01.348Z,29.50
2018-06-01T07:38:52.328Z,30.48
2018-06-01T07:43:44.028Z,31.26
2018-06-01T07:48:36.425Z,31.83
2018-06-01T07:53:27.303Z,32.37
2018-06-01T07:58:18.206Z,32.83
2018-06-01T08:03:09.294Z,32.61
2018-06-01T08:08:00.162Z,31.61
2018-06-01T08:12:51.049Z,30.60
2018-06-01T08:17:42.701Z,29.84
2018-06-01T08:22:33.605Z,29.37
2018-06-01T08:27:24.504Z,29.09
2018-06-01T08:32:16.166Z,28.99
2018-06-01T08:37:07.782Z,28.96
2018-06-01T08:41:58.691Z,28.95
2018-06-01T08:46:50.319Z,28.93
2018-06-01T08:51:41.948Z,28.96
2018-06-01T08:56:33.660Z,29.03
2018-06-01T09:01:24.545Z,29.05
2018-06-01T09:06:16.265Z,29.07
2018-06-01T09:11:07.879Z,29.06
2018-06-01T09:16:00.255Z,29.13
2018-06-01T09:20:51.926Z,29.23
2018-06-01T09:25:43.610Z,29.30
2018-06-01T09:30:36.041Z,29.31
2018-06-01T09:35:26.912Z,29.35
2018-06-01T09:40:18.543Z,29.38
2018-06-01T09:45:10.169Z,29.41
2018-06-01T09:50:02.654Z,29.41
2018-06-01T09:54:53.537Z,29.42
2018-06-01T09:59:45.181Z,29.45
2018-06-01T10:04:37.531Z,29.45
2018-06-01T10:09:29.183Z,29.47
2018-06-01T10:14:21.583Z,29.48
2018-06-01T10:19:12.434Z,29.46
2018-06-01T10:24:05.169Z,29.46
2018-06-01T10:28:56.066Z,29.52
2018-06-01T10:33:46.986Z,29.56
2018-06-01T10:38:38.625Z,29.59
2018-06-01T10:43:30.270Z,29.64
2018-06-01T10:48:21.912Z,29.73
2018-06-01T10:53:13.760Z,29.81
2018-06-01T10:58:05.399Z,29.95
2018-06-01T11:02:57.055Z,30.05
2018-06-01T11:07:47.918Z,30.14
2018-06-01T11:12:39.221Z,30.29
2018-06-01T11:17:30.109Z,30.52
2018-06-01T11:22:21.013Z,30.65
2018-06-01T11:27:12.703Z,30.76
2018-06-01T11:32:04.374Z,30.84
2018-06-01T11:36:56.085Z,30.90
2018-06-01T11:41:46.992Z,31.00
2018-06-01T11:46:38.665Z,31.10
2018-06-01T11:51:31.028Z,31.27
2018-06-01T11:56:22.675Z,31.34
2018-06-01T12:01:14.299Z,31.38
2018-06-01T12:06:06.670Z,31.44
2018-06-01T12:10:58.375Z,31.51
2018-06-01T12:15:49.231Z,31.60
2018-06-01T12:20:40.872Z,31.65
2018-06-01T12:25:32.502Z,31.69
2018-06-01T12:30:24.157Z,31.75
2018-06-01T12:35:15.068Z,31.80
2018-06-01T12:40:05.985Z,31.86
2018-06-01T12:44:57.613Z,31.94
2018-06-01T12:49:49.285Z,32.00
2018-06-01T12:54:40.206Z,32.06
2018-06-01T12:59:31.093Z,32.13
2018-06-01T13:04:23.499Z,32.19
2018-06-01T13:09:16.208Z,32.48
2018-06-01T13:14:07.833Z,32.74
2018-06-01T13:18:58.719Z,33.06
2018-06-01T13:23:49.683Z,33.31
2018-06-01T13:28:40.603Z,33.47
2018-06-01T13:33:31.479Z,33.63
2018-06-01T13:38:22.369Z,33.80
2018-06-01T13:43:14.014Z,33.95
2018-06-01T13:48:05.653Z,34.07
2018-06-01T13:52:57.327Z,34.21
2018-06-01T13:57:48.223Z,34.32
2018-06-01T14:02:39.173Z,34.35
2018-06-01T14:07:30.062Z,34.36
2018-06-01T14:12:21.731Z,34.39
2018-06-01T14:17:12.632Z,34.34
2018-06-01T14:22:03.595Z,34.32
2018-06-01T14:26:54.488Z,34.23
2018-06-01T14:31:45.387Z,34.13
2018-06-01T14:36:36.289Z,34.00
2018-06-01T14:41:27.966Z,33.90
2018-06-01T14:46:18.879Z,33.79
2018-06-01T14:51:09.770Z,33.58
2018-06-01T14:56:02.147Z,33.36
2018-06-01T15:00:53.122Z,33.18
2018-06-01T15:05:44.026Z,33.05
2018-06-01T15:10:34.931Z,32.94
2018-06-01T15:15:25.836Z,32.77
2018-06-01T15:20:16.733Z,32.68
2018-06-01T15:25:08.374Z,32.55
2018-06-01T15:29:59.300Z,32.50
2018-06-01T15:34:50.310Z,32.41
2018-06-01T15:39:41.940Z,32.31
2018-06-01T15:44:34.059Z,32.28
2018-06-01T15:49:26.484Z,32.28
2018-06-01T15:54:17.380Z,32.23
2018-06-01T15:59:08.291Z,32.25
2018-06-01T16:03:59.934Z,32.26
2018-06-01T16:08:50.829Z,32.29
2018-06-01T16:13:42.507Z,32.35
2018-06-01T16:18:34.179Z,32.33
2018-06-01T16:23:25.064Z,32.30
2018-06-01T16:28:16.706Z,32.22
2018-06-01T16:33:07.630Z,32.16
2018-06-01T16:37:58.548Z,32.10
2018-06-01T16:42:49.479Z,32.01
2018-06-01T16:47:40.397Z,31.66
2018-06-01T16:52:32.002Z,31.10
2018-06-01T16:57:22.955Z,30.67
2018-06-01T17:02:13.875Z,30.47
2018-06-01T17:07:04.757Z,30.30
2018-06-01T17:11:56.439Z,30.00
2018-06-01T17:16:47.334Z,29.51
2018-06-01T17:21:38.244Z,29.03
2018-06-01T17:26:29.149Z,27.53
2018-06-01T17:31:20.823Z,26.12
2018-06-01T17:36:11.733Z,25.02
2018-06-01T17:41:03.458Z,24.41
2018-06-01T17:45:54.373Z,24.18
2018-06-01T17:50:45.991Z,23.93
2018-06-01T17:55:37.648Z,23.73
2018-06-01T18:00:29.286Z,23.59
2018-06-01T18:05:20.198Z,23.52
2018-06-01T18:10:11.835Z,23.44
2018-06-01T18:15:04.233Z,23.40
2018-06-01T18:19:55.136Z,23.75
2018-06-01T18:24:46.194Z,24.06
2018-06-01T18:29:38.586Z,23.93
2018-06-01T18:34:30.274Z,23.74
2018-06-01T18:39:21.284Z,23.71
2018-06-01T18:44:12.924Z,24.04
2018-06-01T18:49:03.843Z,24.34
2018-06-01T18:53:55.443Z,24.33
2018-06-01T18:58:47.081Z,24.31
2018-06-01T19:03:39.565Z,24.26
2018-06-01T19:08:30.492Z,24.48
2018-06-01T19:13:21.433Z,24.62
2018-06-01T19:18:13.367Z,24.69
2018-06-01T19:23:04.391Z,24.89
2018-06-01T19:27:55.269Z,25.12
2018-06-01T19:32:46.909Z,25.13
2018-06-01T19:37:38.537Z,25.02
2018-06-01T19:42:30.498Z,24.91
2018-06-01T19:47:22.118Z,24.86
2018-06-01T19:52:13.756Z,24.86
2018-06-01T19:57:05.393Z,24.83
2018-06-01T20:01:57.884Z,24.79
2018-06-01T20:06:48.808Z,24.70
2018-06-01T20:11:39.689Z,24.68
2018-06-01T20:16:32.103Z,24.58
2018-06-01T20:21:22.977Z,24.50
2018-06-01T20:26:14.065Z,24.20
2018-06-01T20:31:04.966Z,24.23
2018-06-01T20:35:55.930Z,24.12
2018-06-01T20:40:48.330Z,24.09
2018-06-01T20:45:39.241Z,24.03
2018-06-01T20:50:30.171Z,24.07
2018-06-01T20:55:21.955Z,24.04
2018-06-01T21:00:13.649Z,23.92
2018-06-01T21:05:04.660Z,23.61
2018-06-01T21:09:55.576Z,23.31
2018-06-01T21:14:46.473Z,23.09
2018-06-01T21:19:37.510Z,22.94
2018-06-01T21:24:28.438Z,22.94
2018-06-01T21:29:19.356Z,22.80
2018-06-01T21:34:11.006Z,22.73
2018-06-01T21:39:01.945Z,22.87
2018-06-01T21:43:52.939Z,23.08
2018-06-01T21:48:43.836Z,23.22
2018-06-01T21:53:34.749Z,23.33
2018-06-01T21:58:26.420Z,23.43
2018-06-01T22:03:17.353Z,23.48
2018-06-01T22:08:08.258Z,23.49
2018-06-01T22:12:59.915Z,23.55
2018-06-01T22:17:50.828Z,23.64
2018-06-01T22:22:41.722Z,23.64
2018-06-01T22:27:32.640Z,23.66
2018-06-01T22:32:23.544Z,23.71
2018-06-01T22:37:15.195Z,23.71
2018-06-01T22:42:06.107Z,23.71
2018-06-01T22:46:57.747Z,23.73
2018-06-01T22:51:49.405Z,23.67
2018-06-01T22:56:40.360Z,23.57
2018-06-01T23:01:31.290Z,23.52
2018-06-01T23:06:22.180Z,23.52
2018-06-01T23:11:13.091Z,23.53
2018-06-01T23:16:03.996Z,23.54
2018-06-01T23:20:55.654Z,23.51
2018-06-01T23:25:46.569Z,23.51
2018-06-01T23:30:40.642Z,23.53
2018-06-01T23:35:31.539Z,23.55
2018-06-01T23:40:23.207Z,23.54
2018-06-01T23:45:14.852Z,23.49
2018-06-01T23:50:05.795Z,23.47
2018-06-01T23:54:56.692Z,23.42
2018-06-01T23:59:47.582Z,23.39
